»·PEaware :: N210AR KBFL-KMHV

N210AR :: KBFL-KMHV

FLIGHT INFORMATION

Flight Status: Arrived
Operator: Privately registered:
United States
More flights under this callsign
Pilot: Max S. (16657)
Aircraft: CESSNA 172 SKYHAWK
(C172)
More flights by this aircraft type
Origin: KBFL Meadows
United States
Destination: KMHV Mojave
United States
More flights between these airports :: More routes between these airports
Route: +
File this flight plan on PilotEdge
Remarks: cat6
Altitude:
(Current/Filed)
7,500ft
Speed:
(Current/Filed)
0kts
Departed: 12-Oct-17 08:57 AM
Arrived: 12-Oct-17 09:41 AM
Distance/Time
Traveled:
50nm/0:44
Distance/Time
To Go:
Arrived

Flight Plot

Page will automatically refresh every two minutes.


Map Options




Map Legend


Flown Route
Filed Route
Departure Airport
Arrival Airport
Navaid (VOR, NDB)
Fix

Horizontal Profiles

Position Reports

Time Latitude Longitude Heading Altitude Ground
Speed
12-Oct-17 08:51 35.435704 -119.052043 179 509ft 0kts
12-Oct-17 08:52 35.435704 -119.052043 179 509ft 0kts
12-Oct-17 08:53 35.435646 -119.052150 291 509ft 4kts
12-Oct-17 08:54 35.434683 -119.054374 215 509ft 14kts
12-Oct-17 08:55 35.432154 -119.051960 135 509ft 16kts
12-Oct-17 08:56 35.429131 -119.048289 135 509ft 24kts
12-Oct-17 08:57 35.426086 -119.044671 152 509ft 11kts
12-Oct-17 08:58 35.425562 -119.044717 215 509ft 0kts
12-Oct-17 08:59 35.425562 -119.044717 215 509ft 0kts
12-Oct-17 09:00 35.425562 -119.044717 215 509ft 0kts
12-Oct-17 09:01 35.425493 -119.044906 259 509ft 8kts
12-Oct-17 09:02 35.431096 -119.053177 308 876ft 63kts
12-Oct-17 09:03 35.439941 -119.064837 323 1646ft 71kts
12-Oct-17 09:04 35.451578 -119.056337 60 2438ft 72kts
12-Oct-17 09:05 35.446541 -119.041440 110 3239ft 64kts
12-Oct-17 09:06 35.442363 -119.029084 105 3899ft 58kts
12-Oct-17 09:07 35.437623 -119.015284 127 4443ft 75kts
12-Oct-17 09:08 35.430376 -119.001349 113 5144ft 67kts
12-Oct-17 09:09 35.424360 -118.987007 116 5777ft 67kts
12-Oct-17 09:10 35.417599 -118.972986 119 6376ft 68kts
12-Oct-17 09:11 35.410458 -118.958819 119 6962ft 68kts
12-Oct-17 09:12 35.402240 -118.944057 127 7470ft 80kts
12-Oct-17 09:13 35.387564 -118.926308 131 7569ft 124kts
12-Oct-17 09:14 35.371729 -118.899587 122 7544ft 129kts
12-Oct-17 09:15 35.358449 -118.871482 118 7540ft 121kts
12-Oct-17 09:16 35.346564 -118.844031 117 7542ft 118kts
12-Oct-17 09:16 35.336970 -118.821161 117 7543ft 117kts
12-Oct-17 09:17 35.325378 -118.793175 117 7545ft 122kts
12-Oct-17 09:19 35.311924 -118.760551 117 7548ft 124kts
12-Oct-17 09:20 35.300971 -118.733716 115 7555ft 129kts
12-Oct-17 09:21 35.289736 -118.706150 116 7558ft 131kts
12-Oct-17 09:21 35.280415 -118.683439 116 7561ft 132kts
12-Oct-17 09:22 35.269003 -118.655733 116 7565ft 132kts
12-Oct-17 09:23 35.257166 -118.627057 116 7570ft 133kts
12-Oct-17 09:24 35.245419 -118.598627 116 7574ft 133kts
12-Oct-17 09:25 35.233456 -118.569700 116 7579ft 134kts
12-Oct-17 09:26 35.221444 -118.540692 116 7581ft 134kts
12-Oct-17 09:27 35.209209 -118.511170 116 7581ft 134kts
12-Oct-17 09:28 35.195856 -118.478969 116 7581ft 134kts
12-Oct-17 09:29 35.183509 -118.449223 116 7581ft 134kts
12-Oct-17 09:30 35.169705 -118.415998 116 7581ft 134kts
12-Oct-17 09:31 35.157156 -118.385821 116 7581ft 134kts
12-Oct-17 09:32 35.144653 -118.355785 116 7582ft 134kts
12-Oct-17 09:33 35.132889 -118.327544 117 7580ft 134kts
12-Oct-17 09:34 35.119524 -118.295532 117 7574ft 134kts
12-Oct-17 09:35 35.107490 -118.266709 116 7564ft 134kts
12-Oct-17 09:36 35.095876 -118.238275 114 6987ft 136kts
12-Oct-17 09:37 35.070215 -118.223329 167 4852ft 157kts
12-Oct-17 09:38 35.066317 -118.196158 81 4472ft 73kts
12-Oct-17 09:39 35.067157 -118.177387 84 4424ft 65kts
12-Oct-17 09:40 35.068099 -118.160865 76 4719ft 74kts
12-Oct-17 09:41 35.069986 -118.142214 76 4687ft 72kts
12-Oct-17 09:42 35.071195 -118.120426 85 3821ft 90kts
12-Oct-17 09:43 35.060540 -118.111011 185 3197ft 71kts
12-Oct-17 09:44 35.058739 -118.131524 276 3089ft 76kts
12-Oct-17 09:45 35.059195 -118.152128 272 2794ft 37kts
12-Oct-17 09:46 35.058356 -118.157775 180 2794ft 0kts
12-Oct-17 09:47 35.058356 -118.157775 180 2794ft 0kts
12-Oct-17 09:48 35.058356 -118.157775 180 2794ft 0kts
12-Oct-17 09:49 35.057600 -118.155718 89 2794ft 17kts
12-Oct-17 09:50 35.057199 -118.154419 194 2794ft 0kts
12-Oct-17 09:51 35.057199 -118.154419 194 2794ft 0kts

Navigation Log

Ident Type
1. KBFL Airport
2. KMHV Airport